Time,TemperatureF,DewpointF,PressureIn,WindDirection,WindDirectionDegrees,WindSpeedMPH,WindSpeedGustMPH,Humidity,HourlyPrecipIn,Conditions,Clouds,dailyrainin,SolarRadiationWatts/m^2,SoftwareType,DateUTC
2013-09-26 00:00:00,44.6,42.7,30.05,NE,34,0.0,0.0,93,0.00,RA,,0.00,0.0,WeatherDisplay:10.37,2013-09-25 23:00:00,
2013-09-26 00:05:00,44.3,42.4,30.05,NE,34,0.0,0.0,93,0.00,RA,,0.00,0.0,WeatherDisplay:10.37,2013-09-25 23:05:00,
2013-09-26 00:15:00,43.5,41.6,30.05,NE,34,0.0,1.0,93,0.00,CLR,,0.00,0.0,WeatherDisplay:10.37,2013-09-25 23:15:00,
2013-09-26 00:20:00,43.2,41.3,30.05,NE,34,1.0,2.0,93,0.00,CLR,,0.00,0.0,WeatherDisplay:10.37,2013-09-25 23:20:00,
2013-09-26 00:30:00,42.8,41.2,30.05,NE,34,0.0,1.0,94,0.00,CLR,,0.00,0.0,WeatherDisplay:10.37,2013-09-25 23:30:00,
2013-09-26 00:35:00,42.6,41.0,30.06,NE,34,0.0,0.0,94,0.00,CLR,,0.00,0.0,WeatherDisplay:10.37,2013-09-25 23:35:00,
2013-09-26 00:40:00,42.4,40.8,30.06,NE,34,0.0,1.0,94,0.00,CLR,,0.00,0.0,WeatherDisplay:10.37,2013-09-25 23:40:00,
2013-09-26 00:45:00,42.2,40.6,30.06,NE,34,0.0,1.0,94,0.00,CLR,,0.00,0.0,WeatherDisplay:10.37,2013-09-25 23:45:00,
2013-09-26 00:50:00,42.0,40.4,30.05,NE,34,0.0,1.0,94,0.00,CLR,,0.00,0.0,WeatherDisplay:10.37,2013-09-25 23:50:00,
2013-09-26 00:55:00,41.8,40.2,30.06,NE,34,0.0,1.0,94,0.00,CLR,,0.00,0.0,WeatherDisplay:10.37,2013-09-25 23:55:00,
2013-09-26 01:00:00,41.6,40.0,30.06,NE,34,0.0,2.0,94,0.00,CLR,,0.00,0.0,WeatherDisplay:10.37,2013-09-26 00:00:00,
2013-09-26 01:05:00,41.5,40.1,30.06,NE,34,0.0,1.0,95,0.00,CLR,,0.00,0.0,WeatherDisplay:10.37,2013-09-26 00:05:00,
2013-09-26 01:10:00,41.3,39.7,30.06,NE,34,0.0,3.0,94,0.00,CLR,,0.00,0.0,WeatherDisplay:10.37,2013-09-26 00:10:00,
2013-09-26 01:20:00,41.2,39.9,30.06,NE,34,0.0,2.0,95,0.00,CLR,,0.00,0.0,WeatherDisplay:10.37,2013-09-26 00:20:00,
2013-09-26 01:25:00,41.3,40.3,30.06,NE,34,0.0,1.0,96,0.00,CLR,,0.00,0.0,WeatherDisplay:10.37,2013-09-26 00:25:00,
2013-09-26 01:30:00,41.9,41.1,30.06,NE,34,1.0,3.0,97,0.00,,,0.00,0.0,WeatherDisplay:10.37,2013-09-26 00:30:00,
2013-09-26 01:35:00,42.2,41.4,30.06,NE,34,0.0,2.0,97,0.00,,,0.00,0.0,WeatherDisplay:10.37,2013-09-26 00:35:00,
2013-09-26 01:40:00,42.5,41.7,30.06,NE,34,0.0,3.0,97,0.00,,,0.00,0.0,WeatherDisplay:10.37,2013-09-26 00:40:00,
2013-09-26 01:45:00,42.9,42.2,30.06,NE,34,0.0,2.0,97,0.00,,,0.00,0.0,WeatherDisplay:10.37,2013-09-26 00:45:00,
2013-09-26 01:50:00,43.1,42.3,30.06,NE,34,0.0,2.0,97,0.00,,,0.00,0.0,WeatherDisplay:10.37,2013-09-26 00:50:00,
2013-09-26 01:55:00,43.2,42.4,30.06,NE,34,0.0,1.0,97,0.00,,,0.00,0.0,WeatherDisplay:10.37,2013-09-26 00:55:00,
2013-09-26 02:00:00,43.3,42.5,30.06,NE,34,0.0,3.0,97,0.00,,,0.00,0.0,WeatherDisplay:10.37,2013-09-26 01:00:00,
2013-09-26 02:05:00,43.4,42.6,30.06,NE,34,0.0,2.0,97,0.00,,,0.00,0.0,WeatherDisplay:10.37,2013-09-26 01:05:00,
2013-09-26 02:10:00,43.5,42.7,30.06,NE,34,0.0,2.0,97,0.00,,,0.00,0.0,WeatherDisplay:10.37,2013-09-26 01:10:00,
2013-09-26 02:15:00,43.5,42.7,30.06,NE,34,0.0,2.0,97,0.00,,,0.00,0.0,WeatherDisplay:10.37,2013-09-26 01:15:00,
2013-09-26 02:20:00,43.6,42.8,30.06,NE,34,1.0,2.0,97,0.00,,,0.00,0.0,WeatherDisplay:10.37,2013-09-26 01:20:00,
2013-09-26 02:25:00,43.6,42.8,30.06,NE,34,0.0,2.0,97,0.00,,,0.00,0.0,WeatherDisplay:10.37,2013-09-26 01:25:00,
2013-09-26 02:30:00,43.5,42.7,30.06,NE,34,0.0,2.0,97,0.00,,,0.00,0.0,WeatherDisplay:10.37,2013-09-26 01:30:00,
2013-09-26 02:35:00,43.6,42.8,30.06,NE,34,0.0,2.0,97,0.00,,,0.00,0.0,WeatherDisplay:10.37,2013-09-26 01:35:00,
2013-09-26 02:45:00,44.1,43.3,30.06,NE,34,1.0,3.0,97,0.00,,,0.00,0.0,WeatherDisplay:10.37,2013-09-26 01:45:00,
2013-09-26 02:50:00,44.2,43.4,30.06,NE,34,0.0,1.0,97,0.00,,,0.00,0.0,WeatherDisplay:10.37,2013-09-26 01:50:00,
2013-09-26 02:55:00,44.4,43.6,30.06,NE,34,0.0,2.0,97,0.00,,,0.00,0.0,WeatherDisplay:10.37,2013-09-26 01:55:00,
2013-09-26 03:00:00,44.5,43.7,30.06,NE,34,0.0,2.0,97,0.00,,,0.00,0.0,WeatherDisplay:10.37,2013-09-26 02:00:00,
2013-09-26 03:05:00,44.5,43.7,30.06,NE,34,0.0,2.0,97,0.00,,,0.00,0.0,WeatherDisplay:10.37,2013-09-26 02:05:00,
2013-09-26 03:10:00,44.6,43.8,30.06,NE,34,0.0,1.0,97,0.00,,,0.00,0.0,WeatherDisplay:10.37,2013-09-26 02:10:00,
2013-09-26 03:15:00,44.5,43.7,30.06,NE,34,0.0,3.0,97,0.00,,,0.00,0.0,WeatherDisplay:10.37,2013-09-26 02:15:00,
2013-09-26 03:20:00,44.5,43.7,30.06,NE,34,0.0,1.0,97,0.00,,,0.00,0.0,WeatherDisplay:10.37,2013-09-26 02:20:00,
2013-09-26 03:25:00,44.5,43.7,30.06,NE,34,1.0,2.0,97,0.00,,,0.00,0.0,WeatherDisplay:10.37,2013-09-26 02:25:00,
2013-09-26 03:30:00,44.6,43.8,30.06,NE,34,0.0,2.0,97,0.00,,,0.00,0.0,WeatherDisplay:10.37,2013-09-26 02:30:00,
2013-09-26 03:35:00,44.5,43.7,30.06,NE,34,0.0,1.0,97,0.00,,,0.00,0.0,WeatherDisplay:10.37,2013-09-26 02:35:00,
2013-09-26 03:40:00,44.2,43.1,30.06,NE,34,0.0,2.0,96,0.00,CLR,,0.00,0.0,WeatherDisplay:10.37,2013-09-26 02:40:00,
2013-09-26 03:45:00,43.9,42.8,30.06,NE,34,0.0,1.0,96,0.00,CLR,,0.00,0.0,WeatherDisplay:10.37,2013-09-26 02:45:00,
2013-09-26 03:50:00,43.6,42.5,30.06,NE,34,0.0,1.0,96,0.00,CLR,,0.00,0.0,WeatherDisplay:10.37,2013-09-26 02:50:00,
2013-09-26 03:55:00,43.3,42.2,30.06,NE,34,0.0,1.0,96,0.00,CLR,,0.00,0.0,WeatherDisplay:10.37,2013-09-26 02:55:00,
2013-09-26 04:00:00,43.0,41.9,30.06,NE,34,0.0,1.0,96,0.00,CLR,,0.00,0.0,WeatherDisplay:10.37,2013-09-26 03:00:00,
2013-09-26 04:05:00,42.8,41.7,30.07,NE,34,0.0,1.0,96,0.00,CLR,,0.00,0.0,WeatherDisplay:10.37,2013-09-26 03:05:00,
2013-09-26 04:10:00,42.7,41.6,30.07,NE,34,0.0,1.0,96,0.00,CLR,,0.00,0.0,WeatherDisplay:10.37,2013-09-26 03:10:00,
2013-09-26 04:15:00,42.8,42.0,30.07,NE,34,0.0,1.0,97,0.00,,,0.00,0.0,WeatherDisplay:10.37,2013-09-26 03:15:00,
2013-09-26 04:25:00,43.1,42.3,30.07,NE,34,0.0,0.0,97,0.00,,,0.00,0.0,WeatherDisplay:10.37,2013-09-26 03:25:00,
2013-09-26 04:30:00,43.2,42.4,30.07,NE,34,0.0,1.0,97,0.00,,,0.00,0.0,WeatherDisplay:10.37,2013-09-26 03:30:00,
2013-09-26 04:35:00,43.3,42.5,30.07,NE,34,0.0,3.0,97,0.00,,,0.00,0.0,WeatherDisplay:10.37,2013-09-26 03:35:00,
2013-09-26 04:40:00,43.5,42.7,30.07,NE,34,0.0,3.0,97,0.00,,,0.00,0.0,WeatherDisplay:10.37,2013-09-26 03:40:00,
2013-09-26 04:45:00,43.8,43.3,30.07,NE,50,0.0,4.0,98,0.00,,,0.00,0.0,WeatherDisplay:10.37,2013-09-26 03:45:00,
2013-09-26 04:50:00,44.3,43.8,30.07,East,95,1.0,4.0,98,0.00,,,0.00,0.0,WeatherDisplay:10.37,2013-09-26 03:50:00,
2013-09-26 04:55:00,44.7,44.2,30.07,ENE,74,0.0,4.0,98,0.00,,,0.00,0.0,WeatherDisplay:10.37,2013-09-26 03:55:00,
2013-09-26 05:00:00,45.0,44.5,30.07,NE,56,1.0,5.0,98,0.00,,,0.00,0.0,WeatherDisplay:10.37,2013-09-26 04:00:00,
2013-09-26 05:05:00,45.2,44.7,30.07,ENE,62,0.0,2.0,98,0.00,,,0.00,0.0,WeatherDisplay:10.37,2013-09-26 04:05:00,
2013-09-26 05:10:00,45.4,44.9,30.08,ENE,57,0.0,2.0,98,0.00,,,0.00,0.0,WeatherDisplay:10.37,2013-09-26 04:10:00,
2013-09-26 05:15:00,45.5,44.7,30.08,ENE,74,1.0,3.0,97,0.00,,,0.00,0.0,WeatherDisplay:10.37,2013-09-26 04:15:00,
2013-09-26 05:20:00,45.6,45.1,30.08,East,80,1.0,3.0,98,0.00,,,0.00,0.0,WeatherDisplay:10.37,2013-09-26 04:20:00,
2013-09-26 05:25:00,45.8,45.3,30.08,ENE,60,1.0,5.0,98,0.00,,,0.00,0.0,WeatherDisplay:10.37,2013-09-26 04:25:00,
2013-09-26 05:30:00,45.8,45.0,30.08,NE,47,1.0,2.0,97,0.00,,,0.00,0.0,WeatherDisplay:10.37,2013-09-26 04:30:00,
2013-09-26 05:35:00,45.8,45.0,30.08,NE,46,0.0,3.0,97,0.00,,,0.00,0.0,WeatherDisplay:10.37,2013-09-26 04:35:00,
2013-09-26 05:40:00,45.8,45.0,30.08,NE,47,0.0,4.0,97,0.00,,,0.00,0.0,WeatherDisplay:10.37,2013-09-26 04:40:00,
2013-09-26 05:45:00,45.8,45.0,30.08,NE,48,0.0,3.0,97,0.00,,,0.00,0.0,WeatherDisplay:10.37,2013-09-26 04:45:00,
2013-09-26 05:50:00,45.6,44.8,30.08,NE,48,1.0,3.0,97,0.00,,,0.00,0.0,WeatherDisplay:10.37,2013-09-26 04:50:00,
2013-09-26 05:55:00,45.5,44.7,30.08,NE,48,0.0,2.0,97,0.00,,,0.00,0.0,WeatherDisplay:10.37,2013-09-26 04:55:00,
2013-09-26 06:00:00,45.4,44.6,30.08,NE,48,0.0,1.0,97,0.00,,,0.00,0.0,WeatherDisplay:10.37,2013-09-26 05:00:00,
2013-09-26 06:05:00,45.3,44.5,30.08,NE,48,0.0,3.0,97,0.00,,,0.00,0.0,WeatherDisplay:10.37,2013-09-26 05:05:00,
2013-09-26 06:15:00,45.0,44.2,30.09,NE,48,0.0,1.0,97,0.00,,,0.00,0.0,WeatherDisplay:10.37,2013-09-26 05:15:00,
2013-09-26 06:20:00,44.8,44.0,30.09,NE,48,1.0,2.0,97,0.00,,,0.00,0.0,WeatherDisplay:10.37,2013-09-26 05:20:00,
2013-09-26 06:25:00,44.7,43.9,30.09,NE,48,0.0,1.0,97,0.00,,,0.00,0.0,WeatherDisplay:10.37,2013-09-26 05:25:00,
2013-09-26 06:30:00,44.6,43.8,30.09,NE,48,0.0,0.0,97,0.00,,,0.00,0.0,WeatherDisplay:10.37,2013-09-26 05:30:00,
2013-09-26 06:35:00,44.5,43.7,30.09,NE,48,0.0,0.0,97,0.00,,,0.00,0.0,WeatherDisplay:10.37,2013-09-26 05:35:00,
2013-09-26 06:40:00,44.4,43.6,30.09,NE,48,0.0,0.0,97,0.00,,,0.00,0.0,WeatherDisplay:10.37,2013-09-26 05:40:00,
2013-09-26 06:45:00,44.3,43.5,30.09,NE,48,0.0,0.0,97,0.00,,,0.00,0.0,WeatherDisplay:10.37,2013-09-26 05:45:00,
2013-09-26 06:50:00,44.3,43.5,30.09,NE,48,0.0,0.0,97,0.00,,,0.00,0.0,WeatherDisplay:10.37,2013-09-26 05:50:00,
2013-09-26 06:55:00,44.2,43.4,30.09,NE,48,0.0,1.0,97,0.00,,,0.00,0.0,WeatherDisplay:10.37,2013-09-26 05:55:00,
2013-09-26 07:00:00,44.1,43.3,30.09,NE,48,0.0,2.0,97,0.00,,,0.00,0.0,WeatherDisplay:10.37,2013-09-26 06:00:00,
2013-09-26 07:05:00,44.0,43.2,30.09,NE,48,0.0,0.0,97,0.00,,,0.00,0.0,WeatherDisplay:10.37,2013-09-26 06:05:00,
2013-09-26 07:10:00,43.9,43.1,30.09,NE,48,0.0,1.0,97,0.00,FEW,,0.00,5.0,WeatherDisplay:10.37,2013-09-26 06:10:00,
2013-09-26 07:15:00,43.8,43.0,30.09,NE,48,0.0,2.0,97,0.00,SCT,,0.00,7.0,WeatherDisplay:10.37,2013-09-26 06:15:00,
2013-09-26 07:20:00,43.8,43.0,30.09,NE,48,0.0,2.0,97,0.00,BKN,,0.00,9.0,WeatherDisplay:10.37,2013-09-26 06:20:00,
2013-09-26 07:25:00,43.8,43.0,30.09,NE,48,0.0,2.0,97,0.00,BKN,,0.00,11.0,WeatherDisplay:10.37,2013-09-26 06:25:00,
2013-09-26 07:30:00,43.7,42.9,30.10,NE,48,0.0,1.0,97,0.00,BKN,,0.00,12.0,WeatherDisplay:10.37,2013-09-26 06:30:00,
2013-09-26 07:40:00,43.4,42.6,30.10,NE,48,0.0,0.0,97,0.00,BKN,,0.00,16.0,WeatherDisplay:10.37,2013-09-26 06:40:00,
2013-09-26 07:45:00,43.2,42.1,30.10,NE,48,0.0,1.0,96,0.00,BKN,,0.00,18.0,WeatherDisplay:10.37,2013-09-26 06:45:00,
2013-09-26 07:50:00,43.0,42.2,30.10,NE,54,0.0,2.0,97,0.00,BKN,,0.00,19.0,WeatherDisplay:10.37,2013-09-26 06:50:00,
2013-09-26 07:55:00,42.9,42.1,30.10,ENE,57,0.0,2.0,97,0.00,BKN,,0.00,21.0,WeatherDisplay:10.37,2013-09-26 06:55:00,
2013-09-26 08:00:00,42.9,42.1,30.10,ENE,59,0.0,3.0,97,0.00,BKN,,0.00,23.0,WeatherDisplay:10.37,2013-09-26 07:00:00,
2013-09-26 08:05:00,42.9,42.1,30.10,ENE,59,0.0,2.0,97,0.00,BKN,,0.00,26.0,WeatherDisplay:10.37,2013-09-26 07:05:00,
2013-09-26 08:10:00,42.9,42.1,30.10,ENE,59,0.0,1.0,97,0.00,BKN,,0.00,28.0,WeatherDisplay:10.37,2013-09-26 07:10:00,
2013-09-26 08:15:00,42.9,42.1,30.10,ENE,59,0.0,1.0,97,0.00,BKN,,0.00,32.0,WeatherDisplay:10.37,2013-09-26 07:15:00,
2013-09-26 08:20:00,42.9,42.1,30.10,ENE,59,0.0,1.0,97,0.00,BKN,,0.00,33.0,WeatherDisplay:10.37,2013-09-26 07:20:00,
2013-09-26 08:25:00,42.9,42.1,30.10,ENE,59,0.0,1.0,97,0.00,BKN,,0.00,35.0,WeatherDisplay:10.37,2013-09-26 07:25:00,
2013-09-26 08:30:00,43.0,42.2,30.10,ENE,59,0.0,1.0,97,0.00,BKN,,0.00,37.0,WeatherDisplay:10.37,2013-09-26 07:30:00,
2013-09-26 08:35:00,43.1,42.3,30.10,ENE,59,0.0,1.0,97,0.00,BKN,,0.00,39.0,WeatherDisplay:10.37,2013-09-26 07:35:00,
2013-09-26 08:40:00,43.1,42.3,30.10,ENE,59,0.0,1.0,97,0.00,BKN,,0.00,40.0,WeatherDisplay:10.37,2013-09-26 07:40:00,
2013-09-26 08:45:00,43.5,43.0,30.10,ENE,59,0.0,2.0,98,0.00,BKN,,0.00,40.0,WeatherDisplay:10.37,2013-09-26 07:45:00,
2013-09-26 08:50:00,44.1,43.5,30.10,ENE,61,2.0,4.0,98,0.00,BKN,,0.00,42.0,WeatherDisplay:10.37,2013-09-26 07:50:00,
2013-09-26 08:55:00,44.9,44.3,30.10,ENE,66,1.0,5.0,98,0.00,BKN,,0.00,42.0,WeatherDisplay:10.37,2013-09-26 07:55:00,
2013-09-26 09:00:00,45.3,44.7,30.10,ENE,61,1.0,3.0,98,0.00,BKN,,0.00,51.0,WeatherDisplay:10.37,2013-09-26 08:00:00,
2013-09-26 09:05:00,45.6,45.0,30.11,ENE,78,2.0,5.0,98,0.00,BKN,,0.00,53.0,WeatherDisplay:10.37,2013-09-26 08:05:00,
2013-09-26 09:10:00,45.9,45.4,30.11,East,96,2.0,5.0,98,0.00,BKN,,0.00,60.0,WeatherDisplay:10.37,2013-09-26 08:10:00,
2013-09-26 09:15:00,46.1,45.6,30.11,East,92,1.0,5.0,98,0.00,BKN,,0.00,60.0,WeatherDisplay:10.37,2013-09-26 08:15:00,
2013-09-26 09:20:00,46.5,46.0,30.11,East,84,1.0,4.0,98,0.00,BKN,,0.00,63.0,WeatherDisplay:10.37,2013-09-26 08:20:00,
2013-09-26 09:25:00,46.8,46.2,30.11,East,95,2.0,5.0,98,0.00,BKN,,0.00,67.0,WeatherDisplay:10.37,2013-09-26 08:25:00,
2013-09-26 09:30:00,47.2,46.6,30.10,East,90,3.0,5.0,98,0.00,BKN,,0.00,67.0,WeatherDisplay:10.37,2013-09-26 08:30:00,
2013-09-26 09:35:00,47.6,47.0,30.11,East,95,3.0,7.0,98,0.00,BKN,,0.00,79.0,WeatherDisplay:10.37,2013-09-26 08:35:00,
2013-09-26 09:40:00,48.0,47.4,30.11,East,99,6.0,9.0,98,0.00,BKN,,0.00,83.0,WeatherDisplay:10.37,2013-09-26 08:40:00,
2013-09-26 09:45:00,48.3,47.5,30.11,East,86,2.0,7.0,97,0.00,BKN,,0.00,178.0,WeatherDisplay:10.37,2013-09-26 08:45:00,
2013-09-26 09:50:00,48.5,47.7,30.11,East,97,5.0,9.0,97,0.00,SCT,,0.00,302.0,WeatherDisplay:10.37,2013-09-26 08:50:00,
2013-09-26 09:55:00,48.9,48.1,30.11,East,100,5.0,8.0,97,0.00,CLR,,0.00,327.0,WeatherDisplay:10.37,2013-09-26 08:55:00,
2013-09-26 10:00:00,49.4,48.6,30.11,East,92,6.0,8.0,97,0.00,CLR,,0.00,308.0,WeatherDisplay:10.37,2013-09-26 09:00:00,
2013-09-26 10:05:00,49.7,48.7,30.11,ENE,74,2.0,9.0,96,0.00,CLR,,0.00,352.0,WeatherDisplay:10.37,2013-09-26 09:05:00,
2013-09-26 10:10:00,50.2,48.9,30.11,East,91,2.0,9.0,95,0.00,CLR,,0.00,322.0,WeatherDisplay:10.37,2013-09-26 09:10:00,
2013-09-26 10:15:00,50.5,48.9,30.11,ESE,106,3.0,8.0,94,0.00,CLR,,0.00,311.0,WeatherDisplay:10.37,2013-09-26 09:15:00,
2013-09-26 10:20:00,50.8,48.8,30.11,East,79,5.0,8.0,93,0.00,CLR,,0.00,336.0,WeatherDisplay:10.37,2013-09-26 09:20:00,
2013-09-26 10:25:00,51.1,48.9,30.11,ENE,69,2.0,7.0,92,0.00,CLR,,0.00,360.0,WeatherDisplay:10.37,2013-09-26 09:25:00,
2013-09-26 10:30:00,51.5,49.3,30.11,East,93,3.0,10.0,92,0.00,CLR,,0.00,362.0,WeatherDisplay:10.37,2013-09-26 09:30:00,
2013-09-26 10:35:00,51.9,49.4,30.11,ESE,111,2.0,7.0,91,0.00,CLR,,0.00,353.0,WeatherDisplay:10.37,2013-09-26 09:35:00,
2013-09-26 10:40:00,52.2,49.4,30.11,ESE,105,3.0,9.0,90,0.00,CLR,,0.00,378.0,WeatherDisplay:10.37,2013-09-26 09:40:00,
2013-09-26 10:45:00,52.3,48.9,30.11,East,95,5.0,8.0,88,0.00,FEW,,0.00,239.0,WeatherDisplay:10.37,2013-09-26 09:45:00,
2013-09-26 10:50:00,52.3,48.9,30.11,East,95,3.0,8.0,88,0.00,SCT,,0.00,190.0,WeatherDisplay:10.37,2013-09-26 09:50:00,
2013-09-26 11:00:00,52.6,48.8,30.11,ESE,103,1.0,6.0,87,0.00,SCT,,0.00,243.0,WeatherDisplay:10.37,2013-09-26 10:00:00,
2013-09-26 11:05:00,52.6,48.2,30.11,ESE,109,3.0,9.0,85,0.00,BKN,,0.00,480.0,WeatherDisplay:10.37,2013-09-26 10:05:00,
2013-09-26 11:10:00,52.8,48.4,30.12,ESE,110,3.0,7.0,85,0.00,SCT,,0.00,206.0,WeatherDisplay:10.37,2013-09-26 10:10:00,
2013-09-26 11:15:00,53.0,48.3,30.11,ESE,121,3.0,7.0,84,0.00,FEW,,0.00,339.0,WeatherDisplay:10.37,2013-09-26 10:15:00,
2013-09-26 11:20:00,53.4,49.0,30.11,SE,132,1.0,6.0,85,0.00,FEW,,0.00,223.0,WeatherDisplay:10.37,2013-09-26 10:20:00,
2013-09-26 11:25:00,53.9,49.2,30.11,SE,136,3.0,7.0,84,0.00,FEW,,0.00,490.0,WeatherDisplay:10.37,2013-09-26 10:25:00,
2013-09-26 11:30:00,54.3,49.2,30.11,SE,126,2.0,6.0,83,0.00,FEW,,0.00,199.0,WeatherDisplay:10.37,2013-09-26 10:30:00,
2013-09-26 11:35:00,54.4,49.0,30.11,ESE,107,1.0,6.0,82,0.00,FEW,,0.00,536.0,WeatherDisplay:10.37,2013-09-26 10:35:00,
2013-09-26 11:40:00,54.8,49.7,30.11,ESE,107,5.0,10.0,83,0.00,FEW,,0.00,589.0,WeatherDisplay:10.37,2013-09-26 10:40:00,
2013-09-26 11:45:00,55.0,49.6,30.11,East,90,5.0,9.0,82,0.00,CLR,,0.00,246.0,WeatherDisplay:10.37,2013-09-26 10:45:00,
2013-09-26 11:50:00,54.9,49.2,30.11,ENE,75,3.0,8.0,81,0.00,SCT,,0.00,206.0,WeatherDisplay:10.37,2013-09-26 10:50:00,
2013-09-26 11:55:00,54.6,49.3,30.10,ENE,74,3.0,9.0,82,0.00,BKN,,0.00,258.0,WeatherDisplay:10.37,2013-09-26 10:55:00,
2013-09-26 12:00:00,54.6,49.5,30.11,ENE,70,3.0,8.0,83,0.00,BKN,,0.00,206.0,WeatherDisplay:10.37,2013-09-26 11:00:00,
2013-09-26 12:05:00,54.5,49.4,30.10,ENE,67,3.0,7.0,83,0.00,BKN,,0.00,214.0,WeatherDisplay:10.37,2013-09-26 11:05:00,
2013-09-26 12:10:00,54.4,49.3,30.11,ENE,69,2.0,7.0,83,0.00,BKN,,0.00,204.0,WeatherDisplay:10.37,2013-09-26 11:10:00,
2013-09-26 12:15:00,54.3,49.3,30.11,East,82,3.0,7.0,83,0.00,BKN,,0.00,353.0,WeatherDisplay:10.37,2013-09-26 11:15:00,
2013-09-26 12:20:00,54.3,49.3,30.11,East,85,3.0,7.0,83,0.00,BKN,,0.00,185.0,WeatherDisplay:10.37,2013-09-26 11:20:00,
2013-09-26 12:25:00,54.4,49.0,30.11,ENE,78,3.0,9.0,82,0.00,BKN,,0.00,155.0,WeatherDisplay:10.37,2013-09-26 11:25:00,
2013-09-26 12:30:00,54.2,48.5,30.11,East,81,3.0,5.0,81,0.00,BKN,,0.00,151.0,WeatherDisplay:10.37,2013-09-26 11:30:00,
2013-09-26 12:35:00,54.2,48.8,30.11,East,83,3.0,8.0,82,0.00,BKN,,0.00,163.0,WeatherDisplay:10.37,2013-09-26 11:35:00,
2013-09-26 12:40:00,54.1,48.7,30.11,ENE,68,2.0,7.0,82,0.00,BKN,,0.00,156.0,WeatherDisplay:10.37,2013-09-26 11:40:00,
2013-09-26 12:45:00,54.1,48.7,30.11,ENE,62,3.0,6.0,82,0.00,BKN,,0.00,153.0,WeatherDisplay:10.37,2013-09-26 11:45:00,
2013-09-26 12:50:00,54.1,48.7,30.11,NE,51,0.0,5.0,82,0.00,BKN,,0.00,118.0,WeatherDisplay:10.37,2013-09-26 11:50:00,
2013-09-26 12:55:00,54.2,48.8,30.11,ENE,59,1.0,4.0,82,0.00,BKN,,0.00,125.0,WeatherDisplay:10.37,2013-09-26 11:55:00,
2013-09-26 13:00:00,54.2,48.8,30.11,ENE,59,1.0,3.0,82,0.00,BKN,,0.00,149.0,WeatherDisplay:10.37,2013-09-26 12:00:00,
2013-09-26 13:05:00,54.4,49.0,30.11,East,85,3.0,8.0,82,0.00,BKN,,0.00,153.0,WeatherDisplay:10.37,2013-09-26 12:05:00,
2013-09-26 13:10:00,54.4,48.7,30.11,East,86,1.0,5.0,81,0.00,BKN,,0.00,163.0,WeatherDisplay:10.37,2013-09-26 12:10:00,
2013-09-26 13:20:00,54.5,48.7,30.10,East,80,2.0,6.0,81,0.00,BKN,,0.00,171.0,WeatherDisplay:10.37,2013-09-26 12:20:00,
2013-09-26 13:25:00,54.6,49.2,30.10,East,81,2.0,7.0,82,0.00,BKN,,0.00,169.0,WeatherDisplay:10.37,2013-09-26 12:25:00,
2013-09-26 13:35:00,54.8,48.7,30.10,ENE,78,2.0,6.0,80,0.00,BKN,,0.00,149.0,WeatherDisplay:10.37,2013-09-26 12:35:00,
2013-09-26 13:40:00,54.7,48.7,30.10,ENE,74,3.0,7.0,80,0.00,BKN,,0.00,151.0,WeatherDisplay:10.37,2013-09-26 12:40:00,
2013-09-26 13:45:00,54.8,48.7,30.10,NE,55,3.0,7.0,80,0.00,BKN,,0.00,146.0,WeatherDisplay:10.37,2013-09-26 12:45:00,
2013-09-26 13:50:00,54.7,48.6,30.10,NE,50,1.0,7.0,80,0.00,BKN,,0.00,137.0,WeatherDisplay:10.37,2013-09-26 12:50:00,
2013-09-26 13:55:00,54.7,48.6,30.10,ENE,67,2.0,5.0,80,0.00,BKN,,0.00,146.0,WeatherDisplay:10.37,2013-09-26 12:55:00,
2013-09-26 14:00:00,54.8,48.7,30.10,East,97,2.0,5.0,80,0.00,BKN,,0.00,149.0,WeatherDisplay:10.37,2013-09-26 13:00:00,
2013-09-26 14:05:00,54.9,49.2,30.09,East,100,0.0,5.0,81,0.00,BKN,,0.00,165.0,WeatherDisplay:10.37,2013-09-26 13:05:00,
2013-09-26 14:10:00,55.0,48.6,30.09,ESE,106,1.0,5.0,79,0.00,BKN,,0.00,167.0,WeatherDisplay:10.37,2013-09-26 13:10:00,
2013-09-26 14:15:00,55.1,48.7,30.09,ESE,108,1.0,6.0,79,0.00,BKN,,0.00,174.0,WeatherDisplay:10.37,2013-09-26 13:15:00,
2013-09-26 14:20:00,55.3,48.9,30.09,East,88,3.0,7.0,79,0.00,BKN,,0.00,206.0,WeatherDisplay:10.37,2013-09-26 13:20:00,
2013-09-26 14:25:00,55.3,48.6,30.09,East,100,1.0,7.0,78,0.00,BKN,,0.00,204.0,WeatherDisplay:10.37,2013-09-26 13:25:00,
2013-09-26 14:30:00,55.5,49.1,30.09,East,99,2.0,5.0,79,0.00,BKN,,0.00,195.0,WeatherDisplay:10.37,2013-09-26 13:30:00,
2013-09-26 14:35:00,55.7,49.3,30.09,East,88,2.0,7.0,79,0.00,BKN,,0.00,195.0,WeatherDisplay:10.37,2013-09-26 13:35:00,
2013-09-26 14:40:00,55.8,49.0,30.09,East,98,3.0,6.0,78,0.00,BKN,,0.00,195.0,WeatherDisplay:10.37,2013-09-26 13:40:00,
2013-09-26 14:45:00,55.8,49.0,30.09,East,84,2.0,5.0,78,0.00,BKN,,0.00,202.0,WeatherDisplay:10.37,2013-09-26 13:45:00,
2013-09-26 14:50:00,55.8,49.0,30.09,ENE,61,2.0,6.0,78,0.00,BKN,,0.00,190.0,WeatherDisplay:10.37,2013-09-26 13:50:00,
2013-09-26 14:55:00,55.9,49.5,30.09,East,79,3.0,6.0,79,0.00,BKN,,0.00,181.0,WeatherDisplay:10.37,2013-09-26 13:55:00,
2013-09-26 15:00:00,55.9,49.5,30.08,East,81,1.0,5.0,79,0.00,BKN,,0.00,185.0,WeatherDisplay:10.37,2013-09-26 14:00:00,
2013-09-26 15:05:00,55.9,49.5,30.08,ENE,64,1.0,5.0,79,0.00,BKN,,0.00,181.0,WeatherDisplay:10.37,2013-09-26 14:05:00,
2013-09-26 15:10:00,55.9,49.1,30.08,ENE,69,2.0,5.0,78,0.00,BKN,,0.00,171.0,WeatherDisplay:10.37,2013-09-26 14:10:00,
2013-09-26 15:15:00,55.8,49.4,30.08,East,80,3.0,7.0,79,0.00,BKN,,0.00,158.0,WeatherDisplay:10.37,2013-09-26 14:15:00,
2013-09-26 15:20:00,55.8,49.4,30.08,ENE,77,2.0,5.0,79,0.00,BKN,,0.00,167.0,WeatherDisplay:10.37,2013-09-26 14:20:00,
2013-09-26 15:25:00,55.8,49.4,30.08,ENE,69,3.0,6.0,79,0.00,BKN,,0.00,127.0,WeatherDisplay:10.37,2013-09-26 14:25:00,
2013-09-26 15:30:00,55.8,49.4,30.08,ENE,59,0.0,3.0,79,0.00,BKN,,0.00,121.0,WeatherDisplay:10.37,2013-09-26 14:30:00,
2013-09-26 15:35:00,55.9,49.5,30.08,ENE,60,2.0,5.0,79,0.00,BKN,,0.00,116.0,WeatherDisplay:10.37,2013-09-26 14:35:00,
2013-09-26 15:40:00,55.8,49.4,30.08,ENE,69,2.0,5.0,79,0.00,BKN,,0.00,107.0,WeatherDisplay:10.37,2013-09-26 14:40:00,
2013-09-26 15:45:00,55.7,49.6,30.08,ENE,58,3.0,7.0,80,0.00,BKN,,0.00,109.0,WeatherDisplay:10.37,2013-09-26 14:45:00,
2013-09-26 15:50:00,55.5,50.1,30.08,NE,48,3.0,6.0,82,0.00,BKN,,0.00,111.0,WeatherDisplay:10.37,2013-09-26 14:50:00,
2013-09-26 15:55:00,55.2,49.8,30.08,NE,46,3.0,7.0,82,0.00,BKN,,0.00,111.0,WeatherDisplay:10.37,2013-09-26 14:55:00,
2013-09-26 16:00:00,55.0,49.9,30.08,NE,38,3.0,8.0,83,0.00,BKN,,0.00,125.0,WeatherDisplay:10.37,2013-09-26 15:00:00,
2013-09-26 16:05:00,54.9,49.8,30.08,NE,35,2.0,5.0,83,0.00,BKN,,0.00,248.0,WeatherDisplay:10.37,2013-09-26 15:05:00,
2013-09-26 16:10:00,55.0,50.3,30.08,NE,43,6.0,9.0,84,0.00,SCT,,0.00,302.0,WeatherDisplay:10.37,2013-09-26 15:10:00,
2013-09-26 16:15:00,55.3,50.6,30.08,NE,40,5.0,8.0,84,0.00,FEW,,0.00,209.0,WeatherDisplay:10.37,2013-09-26 15:15:00,
2013-09-26 16:20:00,55.5,50.4,30.08,NE,35,2.0,7.0,83,0.00,SCT,,0.00,153.0,WeatherDisplay:10.37,2013-09-26 15:20:00,
2013-09-26 16:25:00,55.5,50.1,30.07,NNE,30,3.0,9.0,82,0.00,SCT,,0.00,144.0,WeatherDisplay:10.37,2013-09-26 15:25:00,
2013-09-26 16:30:00,55.3,49.9,30.08,NNE,30,3.0,9.0,82,0.00,SCT,,0.00,132.0,WeatherDisplay:10.37,2013-09-26 15:30:00,
2013-09-26 16:35:00,55.1,50.4,30.07,NE,49,3.0,7.0,84,0.00,BKN,,0.00,132.0,WeatherDisplay:10.37,2013-09-26 15:35:00,
2013-09-26 16:40:00,55.1,50.4,30.07,ENE,60,5.0,10.0,84,0.00,BKN,,0.00,141.0,WeatherDisplay:10.37,2013-09-26 15:40:00,
2013-09-26 16:45:00,55.0,50.0,30.08,NE,40,5.0,8.0,83,0.00,BKN,,0.00,123.0,WeatherDisplay:10.37,2013-09-26 15:45:00,
2013-09-26 16:50:00,55.0,50.3,30.08,NE,44,5.0,6.0,84,0.00,BKN,,0.00,111.0,WeatherDisplay:10.37,2013-09-26 15:50:00,
2013-09-26 16:55:00,54.9,50.1,30.07,NE,50,1.0,8.0,84,0.00,BKN,,0.00,97.0,WeatherDisplay:10.37,2013-09-26 15:55:00,
2013-09-26 17:00:00,54.7,50.0,30.07,NE,49,2.0,8.0,84,0.00,BKN,,0.00,113.0,WeatherDisplay:10.37,2013-09-26 16:00:00,
2013-09-26 17:05:00,54.6,49.9,30.07,NE,50,2.0,5.0,84,0.00,BKN,,0.00,120.0,WeatherDisplay:10.37,2013-09-26 16:05:00,
2013-09-26 17:15:00,54.6,49.9,30.07,NE,44,2.0,5.0,84,0.00,BKN,,0.00,84.0,WeatherDisplay:10.37,2013-09-26 16:15:00,
2013-09-26 17:20:00,54.5,49.8,30.07,NE,49,2.0,5.0,84,0.00,BKN,,0.00,77.0,WeatherDisplay:10.37,2013-09-26 16:20:00,
2013-09-26 17:25:00,54.5,50.1,30.07,NE,40,2.0,5.0,85,0.00,BKN,,0.00,63.0,WeatherDisplay:10.37,2013-09-26 16:25:00,
2013-09-26 17:30:00,54.4,50.0,30.07,NE,52,2.0,7.0,85,0.00,BKN,,0.00,51.0,WeatherDisplay:10.37,2013-09-26 16:30:00,
2013-09-26 17:35:00,54.3,49.9,30.07,NE,55,2.0,4.0,85,0.00,BKN,,0.00,53.0,WeatherDisplay:10.37,2013-09-26 16:35:00,
2013-09-26 17:40:00,54.3,50.2,30.07,NE,46,5.0,7.0,86,0.00,BKN,,0.00,56.0,WeatherDisplay:10.37,2013-09-26 16:40:00,
2013-09-26 17:45:00,54.2,49.8,30.07,NE,45,2.0,6.0,85,0.00,BKN,,0.00,53.0,WeatherDisplay:10.37,2013-09-26 16:45:00,
2013-09-26 17:50:00,54.2,50.1,30.07,NE,42,0.0,3.0,86,0.00,BKN,,0.00,47.0,WeatherDisplay:10.37,2013-09-26 16:50:00,
2013-09-26 17:55:00,54.2,50.1,30.07,NE,44,2.0,4.0,86,0.00,BKN,,0.00,44.0,WeatherDisplay:10.37,2013-09-26 16:55:00,
2013-09-26 18:00:00,54.1,50.3,30.07,NE,48,1.0,5.0,87,0.00,BKN,,0.00,40.0,WeatherDisplay:10.37,2013-09-26 17:00:00,
2013-09-26 18:05:00,54.1,50.3,30.07,NE,49,1.0,4.0,87,0.00,BKN,,0.00,40.0,WeatherDisplay:10.37,2013-09-26 17:05:00,
2013-09-26 18:15:00,54.0,50.5,30.07,NE,37,1.0,3.0,88,0.00,BKN,,0.00,33.0,WeatherDisplay:10.37,2013-09-26 17:15:00,
2013-09-26 18:20:00,53.9,50.4,30.07,NE,51,0.0,4.0,88,0.00,BKN,,0.00,32.0,WeatherDisplay:10.37,2013-09-26 17:20:00,
2013-09-26 18:25:00,53.9,50.4,30.07,NE,53,0.0,3.0,88,0.00,BKN,,0.00,25.0,WeatherDisplay:10.37,2013-09-26 17:25:00,
2013-09-26 18:30:00,53.8,50.4,30.07,NE,55,0.0,2.0,88,0.00,BKN,,0.00,21.0,WeatherDisplay:10.37,2013-09-26 17:30:00,
2013-09-26 18:35:00,53.7,50.2,30.07,NE,46,1.0,4.0,88,0.00,BKN,,0.00,18.0,WeatherDisplay:10.37,2013-09-26 17:35:00,
2013-09-26 18:40:00,53.7,50.2,30.07,NE,44,2.0,3.0,88,0.00,BKN,,0.00,14.0,WeatherDisplay:10.37,2013-09-26 17:40:00,
2013-09-26 18:45:00,53.6,50.1,30.07,NE,44,0.0,3.0,88,0.00,BKN,,0.00,11.0,WeatherDisplay:10.37,2013-09-26 17:45:00,
2013-09-26 18:50:00,53.5,50.0,30.07,NE,44,0.0,2.0,88,0.00,BKN,,0.00,7.0,WeatherDisplay:10.37,2013-09-26 17:50:00,
2013-09-26 18:55:00,53.4,50.3,30.07,NE,44,0.0,3.0,89,0.00,OVC,,0.00,0.0,WeatherDisplay:10.37,2013-09-26 17:55:00,
2013-09-26 19:00:00,53.3,50.2,30.07,NE,44,1.0,3.0,89,0.00,OVC,,0.00,0.0,WeatherDisplay:10.37,2013-09-26 18:00:00,
2013-09-26 19:05:00,53.3,50.1,30.07,NE,44,0.0,2.0,89,0.00,OVC,,0.00,0.0,WeatherDisplay:10.37,2013-09-26 18:05:00,
2013-09-26 19:10:00,53.2,50.1,30.08,NE,44,1.0,3.0,89,0.00,OVC,,0.00,0.0,WeatherDisplay:10.37,2013-09-26 18:10:00,
2013-09-26 19:15:00,53.2,50.0,30.07,NE,44,1.0,3.0,89,0.00,OVC,,0.00,0.0,WeatherDisplay:10.37,2013-09-26 18:15:00,
2013-09-26 19:20:00,53.1,49.9,30.07,NE,44,2.0,4.0,89,0.00,OVC,,0.00,0.0,WeatherDisplay:10.37,2013-09-26 18:20:00,
2013-09-26 19:30:00,53.0,50.1,30.07,NE,44,2.0,4.0,90,0.00,OVC,,0.00,0.0,WeatherDisplay:10.37,2013-09-26 18:30:00,
2013-09-26 19:35:00,52.9,50.0,30.07,NE,46,1.0,5.0,90,0.00,CLR,,0.00,0.0,WeatherDisplay:10.37,2013-09-26 18:35:00,
2013-09-26 19:45:00,52.9,50.0,30.08,NE,48,0.0,3.0,90,0.00,CLR,,0.00,0.0,WeatherDisplay:10.37,2013-09-26 18:45:00,
2013-09-26 19:50:00,52.9,50.0,30.08,NE,47,0.0,1.0,90,0.00,CLR,,0.00,0.0,WeatherDisplay:10.37,2013-09-26 18:50:00,
2013-09-26 19:55:00,52.8,49.9,30.08,NE,47,1.0,2.0,90,0.00,CLR,,0.00,0.0,WeatherDisplay:10.37,2013-09-26 18:55:00,
2013-09-26 20:00:00,52.8,49.9,30.08,NE,47,0.0,2.0,90,0.00,CLR,,0.00,0.0,WeatherDisplay:10.37,2013-09-26 19:00:00,
2013-09-26 20:05:00,52.7,49.9,30.08,NE,47,0.0,2.0,90,0.00,CLR,,0.00,0.0,WeatherDisplay:10.37,2013-09-26 19:05:00,
2013-09-26 20:10:00,52.7,49.8,30.08,NE,47,0.0,1.0,90,0.00,CLR,,0.00,0.0,WeatherDisplay:10.37,2013-09-26 19:10:00,
2013-09-26 20:20:00,52.6,49.8,30.08,NE,47,0.0,3.0,90,0.00,CLR,,0.00,0.0,WeatherDisplay:10.37,2013-09-26 19:20:00,
2013-09-26 20:25:00,52.5,49.7,30.07,NE,47,1.0,4.0,90,0.00,CLR,,0.00,0.0,WeatherDisplay:10.37,2013-09-26 19:25:00,
2013-09-26 20:30:00,52.4,49.6,30.07,NE,47,2.0,3.0,90,0.00,CLR,,0.00,0.0,WeatherDisplay:10.37,2013-09-26 19:30:00,
2013-09-26 20:35:00,52.4,49.3,30.07,NE,47,1.0,3.0,89,0.00,CLR,,0.00,0.0,WeatherDisplay:10.37,2013-09-26 19:35:00,
2013-09-26 20:40:00,52.5,49.3,30.07,NE,47,2.0,3.0,89,0.00,CLR,,0.00,0.0,WeatherDisplay:10.37,2013-09-26 19:40:00,
2013-09-26 20:45:00,52.5,49.4,30.08,NE,47,1.0,3.0,89,0.00,CLR,,0.00,0.0,WeatherDisplay:10.37,2013-09-26 19:45:00,
2013-09-26 20:50:00,52.5,49.4,30.08,NE,54,1.0,3.0,89,0.00,CLR,,0.00,0.0,WeatherDisplay:10.37,2013-09-26 19:50:00,
2013-09-26 20:55:00,52.6,49.4,30.07,East,82,1.0,3.0,89,0.00,CLR,,0.00,0.0,WeatherDisplay:10.37,2013-09-26 19:55:00,
2013-09-26 21:00:00,52.6,49.4,30.07,East,90,2.0,4.0,89,0.00,CLR,,0.00,0.0,WeatherDisplay:10.37,2013-09-26 20:00:00,
2013-09-26 21:05:00,52.7,49.5,30.07,East,79,1.0,2.0,89,0.00,CLR,,0.00,0.0,WeatherDisplay:10.37,2013-09-26 20:05:00,
2013-09-26 21:10:00,52.7,49.5,30.07,East,87,1.0,3.0,89,0.00,CLR,,0.00,0.0,WeatherDisplay:10.37,2013-09-26 20:10:00,
2013-09-26 21:15:00,52.7,49.5,30.08,East,96,0.0,2.0,89,0.00,CLR,,0.00,0.0,WeatherDisplay:10.37,2013-09-26 20:15:00,
2013-09-26 21:20:00,52.7,49.5,30.08,East,88,0.0,2.0,89,0.00,CLR,,0.00,0.0,WeatherDisplay:10.37,2013-09-26 20:20:00,
2013-09-26 21:25:00,52.6,49.5,30.08,ENE,74,1.0,2.0,89,0.00,CLR,,0.00,0.0,WeatherDisplay:10.37,2013-09-26 20:25:00,
2013-09-26 21:30:00,52.6,49.4,30.08,ENE,73,1.0,2.0,89,0.00,CLR,,0.00,0.0,WeatherDisplay:10.37,2013-09-26 20:30:00,
2013-09-26 21:35:00,52.6,49.4,30.08,ENE,71,0.0,1.0,89,0.00,CLR,,0.00,0.0,WeatherDisplay:10.37,2013-09-26 20:35:00,
2013-09-26 21:40:00,52.5,49.4,30.08,ENE,71,0.0,1.0,89,0.00,CLR,,0.00,0.0,WeatherDisplay:10.37,2013-09-26 20:40:00,
2013-09-26 21:50:00,52.4,49.6,30.08,ENE,71,1.0,3.0,90,0.00,CLR,,0.00,0.0,WeatherDisplay:10.37,2013-09-26 20:50:00,
2013-09-26 21:55:00,52.4,49.6,30.07,ENE,71,0.0,3.0,90,0.00,CLR,,0.00,0.0,WeatherDisplay:10.37,2013-09-26 20:55:00,
2013-09-26 22:00:00,52.3,49.5,30.07,ENE,71,0.0,2.0,90,0.00,CLR,,0.00,0.0,WeatherDisplay:10.37,2013-09-26 21:00:00,
2013-09-26 22:05:00,52.3,49.5,30.07,ENE,71,0.0,0.0,90,0.00,CLR,,0.00,0.0,WeatherDisplay:10.37,2013-09-26 21:05:00,
2013-09-26 22:10:00,52.3,49.5,30.08,ENE,71,0.0,1.0,90,0.00,CLR,,0.00,0.0,WeatherDisplay:10.37,2013-09-26 21:10:00,
2013-09-26 22:15:00,52.2,49.4,30.08,ENE,71,0.0,1.0,90,0.00,CLR,,0.00,0.0,WeatherDisplay:10.37,2013-09-26 21:15:00,
2013-09-26 22:20:00,52.2,49.4,30.07,ENE,71,1.0,2.0,90,0.00,CLR,,0.00,0.0,WeatherDisplay:10.37,2013-09-26 21:20:00,
2013-09-26 22:25:00,52.2,49.6,30.08,ENE,71,0.0,1.0,91,0.00,CLR,,0.00,0.0,WeatherDisplay:10.37,2013-09-26 21:25:00,
2013-09-26 22:30:00,52.1,49.6,30.07,ENE,71,0.0,1.0,91,0.00,CLR,,0.00,0.0,WeatherDisplay:10.37,2013-09-26 21:30:00,
2013-09-26 22:40:00,52.1,49.5,30.07,ENE,71,0.0,1.0,91,0.00,CLR,,0.00,0.0,WeatherDisplay:10.37,2013-09-26 21:40:00,
2013-09-26 22:45:00,52.0,49.5,30.07,ENE,71,0.0,2.0,91,0.00,CLR,,0.00,0.0,WeatherDisplay:10.37,2013-09-26 21:45:00,
2013-09-26 22:50:00,51.9,49.4,30.07,ENE,71,0.0,1.0,91,0.00,CLR,,0.00,0.0,WeatherDisplay:10.37,2013-09-26 21:50:00,
2013-09-26 22:55:00,51.9,49.4,30.07,ENE,71,0.0,1.0,91,0.00,CLR,,0.00,0.0,WeatherDisplay:10.37,2013-09-26 21:55:00,
2013-09-26 23:00:00,51.9,49.6,30.08,ENE,71,0.0,1.0,92,0.00,CLR,,0.00,0.0,WeatherDisplay:10.37,2013-09-26 22:00:00,
2013-09-26 23:05:00,51.8,49.5,30.07,ENE,71,0.0,0.0,92,0.00,CLR,,0.00,0.0,WeatherDisplay:10.37,2013-09-26 22:05:00,
2013-09-26 23:10:00,51.8,49.5,30.07,ENE,71,0.0,0.0,92,0.00,CLR,,0.00,0.0,WeatherDisplay:10.37,2013-09-26 22:10:00,
2013-09-26 23:15:00,51.7,49.5,30.07,ENE,71,0.0,0.0,92,0.00,CLR,,0.00,0.0,WeatherDisplay:10.37,2013-09-26 22:15:00,
2013-09-26 23:20:00,51.7,49.5,30.07,ENE,71,0.0,0.0,92,0.00,CLR,,0.00,0.0,WeatherDisplay:10.37,2013-09-26 22:20:00,
2013-09-26 23:25:00,51.7,49.4,30.07,ENE,71,0.0,1.0,92,0.00,CLR,,0.00,0.0,WeatherDisplay:10.37,2013-09-26 22:25:00,
2013-09-26 23:30:00,51.6,49.4,30.07,ENE,71,0.0,0.0,92,0.00,CLR,,0.00,0.0,WeatherDisplay:10.37,2013-09-26 22:30:00,
2013-09-26 23:35:00,51.6,49.4,30.08,ENE,71,0.0,0.0,92,0.00,CLR,,0.00,0.0,WeatherDisplay:10.37,2013-09-26 22:35:00,
2013-09-26 23:40:00,51.5,49.5,30.07,ENE,71,0.0,1.0,93,0.00,CLR,,0.00,0.0,WeatherDisplay:10.37,2013-09-26 22:40:00,
2013-09-26 23:45:00,51.5,49.5,30.07,ENE,71,0.0,1.0,93,0.00,CLR,,0.00,0.0,WeatherDisplay:10.37,2013-09-26 22:45:00,
2013-09-26 23:50:00,51.5,49.5,30.07,ENE,71,0.0,1.0,93,0.00,CLR,,0.00,0.0,WeatherDisplay:10.37,2013-09-26 22:50:00,